Time;durP1;ratioP1;P1;durP2;ratioP2;P2;SDS_P1;SDS_P2;PMS_P1;PMS_P2;Temp;Humidity;BMP_temperature;BMP_pressure;BME280_temperature;BME280_humidity;BME280_pressure;Samples;Min_cycle;Max_cycle;Signal;HPM_P1;HPM_P2
2023/05/06 00:00:32;;;;;;;5.20;2.70;;;11.40;99.90;;;;;;5098190;28;20554;-60
2023/05/06 00:02:59;;;;;;;6.33;2.77;;;11.40;99.90;;;;;;5097262;28;20176;-58
2023/05/06 00:05:25;;;;;;;6.43;2.53;;;11.40;99.90;;;;;;5097069;28;20191;-60
2023/05/06 00:07:51;;;;;;;4.73;2.87;;;11.30;99.90;;;;;;5097450;28;20160;-61
2023/05/06 00:10:17;;;;;;;4.80;2.67;;;11.30;99.90;;;;;;5097227;28;20199;-61
2023/05/06 00:12:43;;;;;;;9.20;3.40;;;11.30;99.90;;;;;;5097868;28;20168;-61
2023/05/06 00:15:09;;;;;;;6.30;3.20;;;11.30;99.90;;;;;;5097173;28;20326;-61
2023/05/06 00:17:35;;;;;;;6.97;3.03;;;11.30;99.90;;;;;;5096888;28;20559;-60
2023/05/06 00:20:00;;;;;;;6.47;2.77;;;11.30;99.90;;;;;;5097270;28;20164;-61
2023/05/06 00:22:26;;;;;;;6.43;3.27;;;11.30;99.90;;;;;;5096692;28;20176;-60
2023/05/06 00:24:51;;;;;;;5.90;2.83;;;11.20;99.90;;;;;;5097894;28;20560;-60
2023/05/06 00:27:17;;;;;;;6.97;2.63;;;11.20;99.90;;;;;;5097341;28;20168;-60
2023/05/06 00:29:43;;;;;;;7.27;3.60;;;11.20;99.90;;;;;;5097870;28;20157;-61
2023/05/06 00:32:08;;;;;;;6.20;3.00;;;11.20;99.90;;;;;;5096605;28;20175;-60
2023/05/06 00:34:34;;;;;;;3.43;2.60;;;11.20;99.90;;;;;;5098011;28;20199;-60
2023/05/06 00:36:59;;;;;;;12.00;3.37;;;11.20;99.90;;;;;;5097350;28;20561;-60
2023/05/06 00:39:25;;;;;;;5.40;3.40;;;11.20;99.90;;;;;;5097494;28;20179;-61
2023/05/06 00:41:51;;;;;;;4.93;3.10;;;11.20;99.90;;;;;;5097525;28;20462;-58
2023/05/06 00:44:16;;;;;;;4.90;2.87;;;11.20;99.90;;;;;;5096975;28;20172;-61
2023/05/06 00:46:42;;;;;;;10.57;3.43;;;11.20;99.90;;;;;;5097084;28;20199;-60
2023/05/06 00:49:08;;;;;;;6.20;2.57;;;11.10;99.90;;;;;;5096369;28;20582;-61
2023/05/06 00:51:34;;;;;;;6.57;2.67;;;11.10;99.90;;;;;;5095838;28;20191;-61
2023/05/06 00:54:00;;;;;;;3.97;2.73;;;11.20;99.90;;;;;;5096606;28;20233;-60
2023/05/06 00:56:26;;;;;;;5.00;3.37;;;11.20;99.90;;;;;;5096627;28;20563;-60
2023/05/06 00:58:56;;;;;;;9.47;3.67;;;11.20;99.90;;;;;;5095465;28;20198;-61
2023/05/06 01:01:23;;;;;;;6.37;3.10;;;11.10;99.90;;;;;;5095302;28;20168;-61
2023/05/06 01:03:48;;;;;;;6.33;2.70;;;11.10;99.90;;;;;;5096683;28;20160;-60
2023/05/06 01:06:48;;;;;;;5.07;2.77;;;11.10;99.90;;;;;;5095929;28;20250;-60
2023/05/06 01:09:16;;;;;;;4.00;2.80;;;11.10;99.90;;;;;;5085907;28;20172;-60
2023/05/06 01:11:48;;;;;;;5.63;2.43;;;11.10;99.90;;;;;;5096473;28;20168;-61
2023/05/06 01:14:33;;;;;;;9.23;3.10;;;11.10;99.90;;;;;;5097593;28;20204;-60
2023/05/06 01:17:03;;;;;;;13.63;3.57;;;11.10;99.90;;;;;;5096045;28;20203;-61
2023/05/06 01:19:37;;;;;;;4.97;2.77;;;11.10;99.90;;;;;;5091253;28;20215;-60
2023/05/06 01:22:05;;;;;;;4.83;2.70;;;11.10;99.90;;;;;;5093264;28;20164;-59
2023/05/06 01:24:48;;;;;;;4.63;2.63;;;11.10;99.90;;;;;;5092058;28;20505;-61
2023/05/06 01:27:15;;;;;;;4.07;2.97;;;11.10;99.90;;;;;;5092236;28;20164;-60
2023/05/06 01:29:42;;;;;;;6.73;3.23;;;11.10;99.90;;;;;;5092508;28;20172;-61
2023/05/06 01:32:45;;;;;;;5.07;3.13;;;11.10;99.90;;;;;;5126095;27;20506;-60
2023/05/06 01:35:52;;;;;;;7.93;3.20;;;11.10;99.90;;;;;;5089690;28;20163;-60
2023/05/06 01:38:42;;;;;;;7.53;3.07;;;11.00;99.90;;;;;;5029340;28;20193;-60
2023/05/06 01:41:13;;;;;;;6.07;2.90;;;11.00;99.90;;;;;;5091519;28;20629;-60
2023/05/06 01:43:42;;;;;;;4.30;3.30;;;11.00;99.90;;;;;;5090876;28;20266;-60
2023/05/06 01:46:13;;;;;;;5.20;2.70;;;11.00;99.90;;;;;;5090692;28;20167;-60
2023/05/06 01:48:40;;;;;;;4.77;3.00;;;11.00;99.90;;;;;;5090947;28;20179;-60
2023/05/06 01:51:06;;;;;;;8.53;3.70;;;11.00;99.90;;;;;;5092120;28;20330;-60
2023/05/06 01:53:32;;;;;;;6.03;3.20;;;11.00;99.90;;;;;;5093943;28;20176;-60
2023/05/06 01:55:57;;;;;;;6.13;3.23;;;10.90;99.90;;;;;;5092477;28;20290;-58
2023/05/06 01:58:23;;;;;;;6.50;3.97;;;11.00;99.90;;;;;;5092841;28;20176;-60
2023/05/06 02:00:49;;;;;;;4.20;3.03;;;10.90;99.90;;;;;;5091415;28;20164;-59
2023/05/06 02:03:14;;;;;;;6.03;3.43;;;10.90;99.90;;;;;;5090731;28;20628;-60
2023/05/06 02:05:40;;;;;;;7.30;3.70;;;10.90;99.90;;;;;;5090365;28;20169;-60
2023/05/06 02:08:05;;;;;;;4.53;3.23;;;10.90;99.90;;;;;;5091483;28;20172;-59
2023/05/06 02:10:31;;;;;;;6.43;3.20;;;10.90;99.90;;;;;;5091036;28;20574;-61
2023/05/06 02:12:56;;;;;;;5.10;3.30;;;10.90;99.90;;;;;;5091189;28;20168;-60
2023/05/06 02:15:22;;;;;;;6.63;3.80;;;10.90;99.90;;;;;;5091013;28;20168;-60
2023/05/06 02:17:48;;;;;;;6.20;3.53;;;10.90;99.90;;;;;;5090958;28;20260;-59
2023/05/06 02:20:13;;;;;;;4.80;3.10;;;10.90;99.90;;;;;;5091532;28;20173;-60
2023/05/06 02:22:39;;;;;;;7.17;3.20;;;10.90;99.90;;;;;;5091624;28;20426;-60
2023/05/06 02:25:05;;;;;;;5.77;3.53;;;10.80;99.90;;;;;;5091588;28;20504;-60
2023/05/06 02:27:31;;;;;;;6.03;3.47;;;10.80;99.90;;;;;;5091283;28;20207;-61
2023/05/06 02:29:56;;;;;;;10.30;3.83;;;10.80;99.90;;;;;;5091158;28;20580;-61
2023/05/06 02:32:22;;;;;;;8.97;4.07;;;10.80;99.90;;;;;;5091994;28;20175;-60
2023/05/06 02:34:47;;;;;;;6.20;3.23;;;10.80;99.90;;;;;;5092968;28;20172;-60
2023/05/06 02:37:13;;;;;;;7.10;3.33;;;10.80;99.90;;;;;;5092843;28;20224;-60
2023/05/06 02:39:38;;;;;;;7.67;3.90;;;10.80;99.90;;;;;;5092850;28;20179;-60
2023/05/06 02:42:04;;;;;;;9.40;3.50;;;10.70;99.90;;;;;;5092687;28;20160;-59
2023/05/06 02:44:30;;;;;;;8.30;4.37;;;10.70;99.90;;;;;;5093600;28;20164;-60
2023/05/06 02:46:55;;;;;;;4.47;3.40;;;10.70;99.90;;;;;;5094309;28;20167;-60
2023/05/06 02:49:21;;;;;;;5.53;3.33;;;10.70;99.90;;;;;;5094296;28;20239;-60
2023/05/06 02:51:46;;;;;;;6.97;3.63;;;10.70;99.90;;;;;;5093669;28;20180;-60
2023/05/06 02:54:12;;;;;;;4.87;3.03;;;10.70;99.90;;;;;;5092745;28;20174;-60
2023/05/06 02:56:37;;;;;;;5.00;3.17;;;10.70;99.90;;;;;;5091774;28;20199;-59
2023/05/06 02:59:03;;;;;;;6.07;3.67;;;10.70;99.90;;;;;;5091932;28;20172;-60
2023/05/06 03:01:28;;;;;;;8.10;3.53;;;10.70;99.90;;;;;;5091664;28;20183;-60
2023/05/06 03:03:54;;;;;;;5.17;3.47;;;10.70;99.90;;;;;;5091722;28;20325;-60
2023/05/06 03:06:20;;;;;;;4.40;3.60;;;10.60;99.90;;;;;;5090672;28;20215;-59
2023/05/06 03:08:45;;;;;;;4.30;3.03;;;10.60;99.90;;;;;;5091822;28;20172;-58
2023/05/06 03:11:11;;;;;;;5.57;2.93;;;10.60;99.90;;;;;;5092768;28;20182;-60
2023/05/06 03:16:58;;;;;;;6.53;3.90;;;10.60;99.90;;;;;;5094091;28;20214;-60
2023/05/06 03:19:24;;;;;;;6.73;3.27;;;10.60;99.90;;;;;;5091923;28;20168;-58
2023/05/06 03:21:49;;;;;;;7.27;3.33;;;10.60;99.90;;;;;;5091923;28;20271;-59
2023/05/06 03:24:15;;;;;;;6.40;3.57;;;10.60;99.90;;;;;;5095676;28;20187;-60
2023/05/06 03:26:40;;;;;;;9.50;3.57;;;10.60;99.90;;;;;;5096772;28;20225;-60
2023/05/06 03:29:06;;;;;;;6.83;3.77;;;10.60;99.90;;;;;;5096278;28;20195;-60
2023/05/06 03:31:31;;;;;;;7.30;3.27;;;10.60;99.90;;;;;;5095368;28;20530;-59
2023/05/06 03:33:57;;;;;;;5.10;3.60;;;10.60;99.90;;;;;;5095354;28;20168;-60
2023/05/06 03:36:26;;;;;;;3.93;3.27;;;10.60;99.90;;;;;;5097268;28;20584;-60
2023/05/06 03:38:52;;;;;;;5.57;2.87;;;10.50;99.90;;;;;;5096488;28;20215;-59
2023/05/06 03:41:18;;;;;;;8.50;3.80;;;10.60;99.90;;;;;;5095892;28;20196;-59
2023/05/06 03:43:43;;;;;;;4.90;3.63;;;10.50;99.90;;;;;;5095979;28;20179;-59
2023/05/06 03:46:10;;;;;;;6.43;3.57;;;10.50;99.90;;;;;;5096217;28;20191;-58
2023/05/06 03:48:35;;;;;;;5.70;3.30;;;10.50;99.90;;;;;;5095827;28;20172;-59
2023/05/06 03:51:02;;;;;;;7.17;3.30;;;10.50;99.90;;;;;;5095861;28;20453;-58
2023/05/06 03:53:27;;;;;;;5.37;3.20;;;10.50;99.90;;;;;;5094680;28;20527;-58
2023/05/06 03:55:53;;;;;;;4.77;3.33;;;10.50;99.90;;;;;;5096074;28;20610;-59
2023/05/06 03:58:19;;;;;;;6.27;3.63;;;10.50;99.90;;;;;;5095870;28;20164;-59
2023/05/06 04:00:44;;;;;;;7.63;3.40;;;10.50;99.90;;;;;;5095117;28;20160;-60
2023/05/06 04:03:10;;;;;;;5.93;3.40;;;10.50;99.90;;;;;;5093931;28;20160;-58
2023/05/06 04:05:35;;;;;;;6.53;3.87;;;10.50;99.90;;;;;;5092604;28;20167;-60
2023/05/06 04:08:01;;;;;;;5.57;3.43;;;10.50;99.90;;;;;;5091979;28;20303;-59
2023/05/06 04:10:26;;;;;;;5.90;4.07;;;10.50;99.90;;;;;;5092620;28;20168;-60
2023/05/06 04:12:52;;;;;;;7.87;3.87;;;10.50;99.90;;;;;;5091872;28;20542;-60
2023/05/06 04:15:18;;;;;;;4.60;3.47;;;10.50;99.90;;;;;;5091308;28;20172;-60
2023/05/06 04:17:43;;;;;;;8.60;3.67;;;10.40;99.90;;;;;;5090329;28;20212;-60
2023/05/06 04:20:10;;;;;;;5.67;3.80;;;10.40;99.90;;;;;;5091680;28;20164;-60
2023/05/06 04:22:37;;;;;;;8.23;3.97;;;10.40;99.90;;;;;;5090825;28;20532;-60
2023/05/06 04:25:03;;;;;;;6.90;3.90;;;10.40;99.90;;;;;;5090594;28;20164;-60
2023/05/06 04:27:30;;;;;;;7.83;3.23;;;10.40;99.90;;;;;;5090101;28;20182;-60
2023/05/06 04:29:56;;;;;;;5.93;4.17;;;10.40;99.90;;;;;;5091211;28;20184;-60
2023/05/06 04:32:24;;;;;;;4.43;3.50;;;10.40;99.90;;;;;;5091547;28;20230;-60
2023/05/06 04:34:51;;;;;;;6.27;3.90;;;10.50;99.90;;;;;;5092746;28;20536;-59
2023/05/06 04:37:18;;;;;;;4.13;3.57;;;10.40;99.90;;;;;;5092010;28;20312;-60
2023/05/06 04:39:47;;;;;;;5.40;3.80;;;10.40;99.90;;;;;;5092842;28;20188;-60
2023/05/06 04:42:13;;;;;;;8.10;4.27;;;10.40;99.90;;;;;;5091172;28;20427;-58
2023/05/06 04:44:40;;;;;;;6.33;4.00;;;10.40;99.90;;;;;;5089441;28;20295;-58
2023/05/06 04:47:05;;;;;;;8.27;4.10;;;10.40;99.90;;;;;;5089263;28;20167;-60
2023/05/06 04:49:31;;;;;;;7.47;3.90;;;10.40;99.90;;;;;;5088080;28;20467;-62
2023/05/06 04:51:56;;;;;;;5.57;3.70;;;10.40;99.90;;;;;;5087791;28;20518;-60
2023/05/06 04:54:22;;;;;;;5.57;4.03;;;10.40;99.90;;;;;;5085681;28;20325;-60
2023/05/06 04:56:53;;;;;;;5.03;3.90;;;10.40;99.90;;;;;;5086053;28;20580;-59
2023/05/06 04:59:18;;;;;;;7.23;3.73;;;10.40;99.90;;;;;;5085950;28;20466;-60
2023/05/06 05:01:44;;;;;;;6.67;3.80;;;10.40;99.90;;;;;;5084166;28;20454;-60
2023/05/06 05:04:09;;;;;;;5.87;4.27;;;10.40;99.90;;;;;;5085548;28;20254;-60
2023/05/06 05:06:35;;;;;;;7.87;4.70;;;10.40;99.90;;;;;;5085747;28;20180;-59
2023/05/06 05:09:00;;;;;;;7.83;4.07;;;10.40;99.90;;;;;;5087497;28;20160;-60
2023/05/06 05:11:47;;;;;;;5.13;3.50;;;10.40;99.90;;;;;;5086804;28;20246;-58
2023/05/06 05:14:12;;;;;;;5.83;4.27;;;10.40;99.90;;;;;;5088125;28;20174;-60
2023/05/06 05:16:38;;;;;;;5.27;4.07;;;10.40;99.90;;;;;;5089413;28;20274;-58
2023/05/06 05:19:03;;;;;;;5.53;4.10;;;10.40;99.90;;;;;;5089471;28;20546;-60
2023/05/06 05:21:29;;;;;;;7.97;4.23;;;10.40;99.90;;;;;;5090544;28;20183;-60
2023/05/06 05:23:54;;;;;;;8.80;4.83;;;10.40;99.90;;;;;;5090569;28;20541;-59
2023/05/06 05:26:20;;;;;;;6.23;4.20;;;10.40;99.90;;;;;;5090840;28;20281;-60
2023/05/06 05:28:46;;;;;;;8.40;4.30;;;10.40;99.90;;;;;;5089369;28;20175;-60
2023/05/06 05:31:11;;;;;;;7.83;4.03;;;10.40;99.90;;;;;;5088715;28;20278;-59
2023/05/06 05:33:37;;;;;;;6.93;4.67;;;10.40;99.90;;;;;;5088162;28;20183;-60
2023/05/06 05:36:03;;;;;;;6.30;4.77;;;10.40;99.90;;;;;;5088454;28;20302;-59
2023/05/06 05:38:28;;;;;;;9.90;4.17;;;10.40;99.90;;;;;;5088883;28;20172;-60
2023/05/06 05:40:55;;;;;;;6.93;4.27;;;10.40;99.90;;;;;;5089887;28;21040;-58
2023/05/06 05:43:24;;;;;;;6.27;4.47;;;10.40;99.90;;;;;;5089776;28;20187;-59
2023/05/06 05:45:50;;;;;;;9.43;4.30;;;10.40;99.90;;;;;;5090367;28;20501;-59
2023/05/06 05:48:15;;;;;;;9.27;4.57;;;10.40;99.90;;;;;;5089597;28;20540;-60
2023/05/06 05:50:41;;;;;;;6.10;3.93;;;10.40;99.90;;;;;;5091316;28;20773;-60
2023/05/06 05:53:07;;;;;;;6.23;4.80;;;10.40;99.90;;;;;;5091028;28;20168;-60
2023/05/06 05:55:32;;;;;;;5.97;4.47;;;10.40;99.90;;;;;;5089818;28;20172;-60
2023/05/06 05:57:58;;;;;;;6.90;4.37;;;10.30;99.90;;;;;;5089336;28;20215;-60
2023/05/06 06:00:23;;;;;;;6.40;4.73;;;10.40;99.90;;;;;;5089990;28;20165;-60
2023/05/06 06:02:49;;;;;;;5.60;4.50;;;10.40;99.90;;;;;;5088049;28;20236;-60
2023/05/06 06:05:14;;;;;;;6.83;4.13;;;10.30;99.90;;;;;;5089222;28;20175;-60
2023/05/06 06:07:40;;;;;;;6.00;4.37;;;10.30;99.90;;;;;;5089396;28;20449;-60
2023/05/06 06:10:06;;;;;;;8.23;4.67;;;10.30;99.90;;;;;;5088707;28;20164;-60
2023/05/06 06:12:32;;;;;;;9.00;5.97;;;10.30;99.90;;;;;;5088318;28;20176;-60
2023/05/06 06:14:57;;;;;;;7.33;4.63;;;10.30;99.90;;;;;;5087332;28;20331;-60
2023/05/06 06:17:23;;;;;;;7.17;4.73;;;10.30;99.90;;;;;;5088892;28;20222;-58
2023/05/06 06:19:50;;;;;;;7.50;5.00;;;10.40;99.90;;;;;;5087829;28;20183;-60
2023/05/06 06:22:15;;;;;;;8.03;4.70;;;10.40;99.90;;;;;;5086963;28;20620;-60
2023/05/06 06:24:42;;;;;;;7.00;5.33;;;10.40;99.90;;;;;;5086119;28;20672;-60
2023/05/06 06:27:07;;;;;;;6.07;4.73;;;10.40;99.90;;;;;;5085396;28;20164;-60
2023/05/06 06:29:33;;;;;;;6.83;5.20;;;10.40;99.90;;;;;;5085932;28;20175;-60
2023/05/06 06:31:59;;;;;;;8.93;5.33;;;10.40;99.90;;;;;;5087411;28;20551;-59
2023/05/06 06:34:24;;;;;;;5.80;4.93;;;10.40;99.90;;;;;;5086577;28;20172;-60
2023/05/06 06:36:50;;;;;;;6.67;4.80;;;10.40;99.90;;;;;;5085423;28;20512;-60
2023/05/06 06:39:15;;;;;;;13.20;5.07;;;10.40;99.90;;;;;;5087333;28;20271;-58
2023/05/06 06:41:41;;;;;;;8.03;5.27;;;10.30;99.90;;;;;;5068709;28;20232;-59
2023/05/06 06:44:06;;;;;;;7.60;5.13;;;10.40;99.90;;;;;;5086269;28;20172;-60
2023/05/06 06:46:33;;;;;;;10.43;5.40;;;10.40;99.90;;;;;;5085810;28;20175;-58
2023/05/06 06:49:00;;;;;;;8.23;4.80;;;10.40;99.90;;;;;;5083592;28;20172;-59
2023/05/06 06:51:26;;;;;;;5.97;4.83;;;10.40;99.90;;;;;;5085864;28;20292;-59
2023/05/06 06:53:52;;;;;;;5.93;4.37;;;10.40;99.90;;;;;;5086394;28;20462;-59
2023/05/06 06:56:17;;;;;;;10.43;4.73;;;10.40;99.90;;;;;;5085130;28;20324;-59
2023/05/06 06:58:43;;;;;;;8.67;4.10;;;10.40;99.90;;;;;;5086677;28;20271;-60
2023/05/06 07:01:09;;;;;;;6.00;4.77;;;10.40;99.90;;;;;;5089272;28;20176;-58
2023/05/06 07:03:34;;;;;;;6.07;4.73;;;10.40;99.90;;;;;;5086623;28;20179;-60
2023/05/06 07:06:00;;;;;;;7.73;5.10;;;10.40;99.90;;;;;;5085594;28;20274;-60
2023/05/06 07:08:25;;;;;;;8.07;4.80;;;10.40;99.90;;;;;;5085667;28;20180;-60
2023/05/06 07:10:51;;;;;;;7.63;4.80;;;10.40;99.90;;;;;;5084063;28;20207;-60
2023/05/06 07:13:19;;;;;;;7.87;4.30;;;10.40;99.90;;;;;;5082494;28;20187;-59
2023/05/06 07:15:44;;;;;;;7.73;4.70;;;10.40;99.90;;;;;;5081755;28;20415;-60
2023/05/06 07:18:10;;;;;;;8.97;5.43;;;10.40;99.90;;;;;;5084744;28;20399;-60
2023/05/06 07:20:35;;;;;;;7.90;4.30;;;10.40;99.90;;;;;;5087809;28;20461;-60
2023/05/06 07:23:01;;;;;;;9.17;4.93;;;10.40;99.90;;;;;;5087393;28;20547;-60
2023/05/06 07:25:26;;;;;;;6.57;5.00;;;10.40;99.90;;;;;;5087351;28;20441;-60
2023/05/06 07:27:52;;;;;;;6.50;4.70;;;10.40;99.90;;;;;;5085830;28;20168;-60
2023/05/06 07:30:19;;;;;;;6.70;4.90;;;10.40;99.90;;;;;;5085492;28;20168;-58
2023/05/06 07:32:44;;;;;;;8.17;5.07;;;10.40;99.90;;;;;;5081750;28;20176;-60
2023/05/06 07:35:10;;;;;;;6.40;4.97;;;10.40;99.90;;;;;;5082151;28;20187;-59
2023/05/06 07:37:35;;;;;;;10.13;4.60;;;10.40;99.90;;;;;;5082157;28;20223;-59
2023/05/06 07:40:01;;;;;;;7.23;3.80;;;10.50;99.90;;;;;;5080121;28;20589;-60
2023/05/06 07:42:27;;;;;;;6.43;4.97;;;10.50;99.90;;;;;;5077686;28;20505;-58
2023/05/06 07:44:52;;;;;;;7.30;4.90;;;10.50;99.90;;;;;;5078115;28;20598;-60
2023/05/06 07:47:26;;;;;;;7.87;4.50;;;10.50;99.90;;;;;;5077954;28;20423;-58
2023/05/06 07:49:53;;;;;;;5.57;4.53;;;10.50;99.90;;;;;;5080059;28;20445;-58
2023/05/06 07:52:19;;;;;;;5.83;4.80;;;10.50;99.90;;;;;;5081417;28;20464;-59
2023/05/06 07:54:44;;;;;;;9.07;5.43;;;10.50;99.90;;;;;;5081924;28;20552;-59
2023/05/06 07:57:10;;;;;;;7.83;5.33;;;10.50;99.90;;;;;;5084620;28;20524;-59
2023/05/06 07:59:35;;;;;;;7.87;4.83;;;10.50;99.90;;;;;;5086003;28;20243;-59
2023/05/06 08:02:01;;;;;;;9.93;5.10;;;10.50;99.90;;;;;;5087082;28;20172;-60
2023/05/06 08:04:27;;;;;;;7.33;4.63;;;10.50;99.90;;;;;;5084581;28;20167;-58
2023/05/06 08:06:52;;;;;;;7.40;4.67;;;10.50;99.90;;;;;;5084346;28;20248;-60
2023/05/06 08:09:18;;;;;;;5.03;4.40;;;10.50;99.90;;;;;;5082965;28;20200;-60
2023/05/06 08:11:44;;;;;;;8.40;5.20;;;10.50;99.90;;;;;;5083782;28;20447;-58
2023/05/06 08:14:09;;;;;;;7.33;4.63;;;10.50;99.90;;;;;;5081250;28;20172;-60
2023/05/06 08:16:35;;;;;;;5.40;4.50;;;10.60;99.90;;;;;;5080246;28;20568;-60
2023/05/06 08:19:00;;;;;;;5.07;4.13;;;10.60;99.90;;;;;;5079600;28;20470;-60
2023/05/06 08:21:26;;;;;;;6.20;4.80;;;10.60;99.90;;;;;;5077237;28;20258;-60
2023/05/06 08:23:52;;;;;;;6.70;4.47;;;10.60;99.90;;;;;;5076599;28;20171;-60
2023/05/06 08:26:17;;;;;;;6.80;4.90;;;10.70;99.90;;;;;;5078034;28;20437;-60
2023/05/06 08:28:43;;;;;;;8.30;4.40;;;10.70;99.90;;;;;;5075837;28;20187;-58
2023/05/06 08:31:09;;;;;;;5.63;4.90;;;10.70;99.90;;;;;;5077834;28;20172;-58
2023/05/06 08:33:34;;;;;;;9.10;5.03;;;10.70;99.90;;;;;;5078686;28;20175;-59
2023/05/06 08:36:00;;;;;;;11.03;6.10;;;10.70;99.90;;;;;;5077892;28;20222;-59
2023/05/06 08:38:25;;;;;;;8.30;5.30;;;10.70;99.90;;;;;;5079026;28;20556;-60
2023/05/06 08:40:52;;;;;;;7.37;5.30;;;10.70;99.90;;;;;;5077160;28;20171;-59
2023/05/06 08:43:20;;;;;;;8.50;5.10;;;10.70;99.90;;;;;;5077063;28;20282;-60
2023/05/06 08:45:46;;;;;;;5.90;4.77;;;10.70;99.90;;;;;;5080494;28;20669;-58
2023/05/06 08:48:12;;;;;;;8.70;5.23;;;10.70;99.90;;;;;;5082031;28;20320;-60
2023/05/06 08:50:41;;;;;;;8.73;5.33;;;10.70;99.90;;;;;;5083020;28;20224;-60
2023/05/06 08:53:11;;;;;;;8.50;5.63;;;10.70;99.90;;;;;;5083410;28;20410;-57
2023/05/06 08:55:39;;;;;;;6.27;4.70;;;10.70;99.90;;;;;;5084279;28;20206;-60
2023/05/06 08:58:06;;;;;;;5.63;5.13;;;10.80;99.90;;;;;;5085831;28;20591;-60
2023/05/06 09:00:32;;;;;;;6.57;4.83;;;10.80;99.90;;;;;;5085321;28;20174;-60
2023/05/06 09:02:57;;;;;;;6.73;5.27;;;10.80;99.90;;;;;;5084449;28;20397;-59
2023/05/06 09:05:23;;;;;;;6.20;4.50;;;10.80;99.90;;;;;;5085217;28;20168;-60
2023/05/06 09:07:48;;;;;;;5.23;4.50;;;10.80;99.90;;;;;;5084306;28;20575;-58
2023/05/06 09:10:16;;;;;;;7.43;5.00;;;10.80;99.90;;;;;;5083649;28;20168;-60
2023/05/06 09:12:42;;;;;;;11.87;5.90;;;10.80;99.90;;;;;;5086328;28;20194;-60
2023/05/06 09:15:08;;;;;;;8.80;6.17;;;10.90;99.90;;;;;;5089544;28;20172;-60
2023/05/06 09:17:35;;;;;;;9.43;5.63;;;10.90;99.90;;;;;;5089409;28;20196;-60
2023/05/06 09:20:01;;;;;;;10.67;5.87;;;10.90;99.90;;;;;;5088569;28;20666;-56
2023/05/06 09:22:29;;;;;;;9.70;5.73;;;10.90;99.90;;;;;;5083234;28;20234;-60
2023/05/06 09:24:56;;;;;;;6.90;5.50;;;10.90;99.90;;;;;;5082651;28;20303;-60
2023/05/06 09:27:24;;;;;;;9.00;5.57;;;10.90;99.90;;;;;;5082472;28;20497;-59
2023/05/06 09:30:00;;;;;;;7.47;5.43;;;10.90;99.90;;;;;;5081940;28;20191;-58
2023/05/06 09:32:26;;;;;;;8.53;5.63;;;10.90;99.90;;;;;;5079587;28;20164;-59
2023/05/06 09:34:53;;;;;;;8.00;5.43;;;10.90;99.90;;;;;;5078956;28;20409;-60
2023/05/06 09:37:19;;;;;;;8.00;5.60;;;10.90;99.90;;;;;;5078497;28;20230;-61
2023/05/06 09:39:45;;;;;;;7.30;6.00;;;10.90;99.90;;;;;;5080524;28;20211;-60
2023/05/06 09:42:11;;;;;;;11.47;6.60;;;11.00;99.90;;;;;;5083649;28;20172;-59
2023/05/06 09:44:37;;;;;;;33.20;10.83;;;11.00;99.90;;;;;;5083610;28;20160;-60
2023/05/06 09:47:02;;;;;;;11.80;7.27;;;11.00;99.90;;;;;;5082679;28;20713;-59
2023/05/06 09:49:28;;;;;;;9.30;6.43;;;11.10;99.90;;;;;;5082565;28;20179;-60
2023/05/06 09:51:56;;;;;;;12.53;7.53;;;11.10;99.90;;;;;;5077605;28;20168;-60
2023/05/06 09:54:23;;;;;;;7.30;5.73;;;11.10;99.90;;;;;;5077542;28;20260;-60
2023/05/06 09:56:51;;;;;;;9.13;6.67;;;11.10;99.90;;;;;;5076634;28;20203;-60
2023/05/06 09:59:17;;;;;;;9.93;6.17;;;11.10;99.90;;;;;;5075322;28;20277;-60
2023/05/06 10:01:43;;;;;;;7.00;5.47;;;11.20;99.90;;;;;;5074434;28;20249;-60
2023/05/06 10:04:11;;;;;;;7.97;5.57;;;11.20;99.90;;;;;;5078609;28;20171;-59
2023/05/06 10:06:40;;;;;;;6.83;5.60;;;11.20;99.90;;;;;;5078624;28;20173;-59
2023/05/06 10:09:07;;;;;;;9.40;6.27;;;11.20;99.90;;;;;;5077633;28;20178;-60
2023/05/06 10:11:34;;;;;;;6.60;5.27;;;11.20;99.90;;;;;;5080381;28;20184;-59
2023/05/06 10:14:01;;;;;;;10.27;6.17;;;11.20;99.90;;;;;;5078338;28;20473;-59
2023/05/06 10:16:27;;;;;;;7.60;5.27;;;11.20;99.90;;;;;;5080318;28;20674;-60
2023/05/06 10:18:54;;;;;;;9.30;5.90;;;11.20;99.90;;;;;;5081134;28;20560;-60
2023/05/06 10:21:25;;;;;;;5.57;5.07;;;11.20;99.90;;;;;;5080494;28;20567;-60
2023/05/06 10:24:00;;;;;;;9.27;5.87;;;11.20;99.90;;;;;;5078515;28;20167;-59
2023/05/06 10:26:28;;;;;;;10.03;6.27;;;11.20;99.90;;;;;;5079077;28;20363;-60
2023/05/06 10:29:00;;;;;;;8.10;5.97;;;11.20;99.90;;;;;;5082296;28;20585;-60
2023/05/06 10:31:27;;;;;;;9.30;5.83;;;11.30;99.90;;;;;;5080788;28;20168;-60
2023/05/06 10:33:55;;;;;;;10.83;6.63;;;11.20;99.90;;;;;;5077370;28;20176;-59
2023/05/06 10:36:24;;;;;;;8.30;6.50;;;11.20;99.90;;;;;;5078489;28;20482;-59
2023/05/06 10:38:55;;;;;;;9.17;6.40;;;11.20;99.90;;;;;;5076719;28;20719;-60
2023/05/06 10:41:26;;;;;;;11.00;6.87;;;11.20;99.90;;;;;;5072825;28;20379;-60
2023/05/06 10:43:55;;;;;;;9.93;5.83;;;11.30;99.90;;;;;;5070750;28;20172;-60
2023/05/06 10:46:26;;;;;;;9.27;6.67;;;11.30;99.90;;;;;;5074675;28;20171;-60
2023/05/06 10:49:19;;;;;;;9.30;5.97;;;11.30;99.90;;;;;;5075338;28;20172;-60
2023/05/06 10:51:45;;;;;;;9.70;6.13;;;11.30;99.90;;;;;;5071558;28;20175;-60
2023/05/06 10:54:17;;;;;;;7.47;5.43;;;11.30;99.90;;;;;;5071016;28;20399;-59
2023/05/06 10:56:48;;;;;;;10.17;6.40;;;11.30;99.90;;;;;;5072892;28;20204;-60
2023/05/06 10:59:20;;;;;;;9.83;6.73;;;11.30;99.90;;;;;;5072595;28;20311;-60
2023/05/06 11:01:55;;;;;;;9.63;6.37;;;11.30;99.90;;;;;;5072807;28;20492;-60
2023/05/06 11:04:21;;;;;;;9.93;6.17;;;11.30;99.90;;;;;;5074762;28;20174;-60
2023/05/06 11:06:53;;;;;;;8.53;5.87;;;11.30;99.90;;;;;;5073988;28;20207;-59
2023/05/06 11:09:25;;;;;;;9.57;6.80;;;11.30;99.90;;;;;;5076203;28;20271;-60
2023/05/06 11:12:04;;;;;;;10.80;6.43;;;11.30;99.90;;;;;;5077585;28;20447;-58
2023/05/06 11:14:37;;;;;;;7.20;5.37;;;11.30;99.90;;;;;;5074955;28;20167;-59
2023/05/06 11:17:28;;;;;;;12.00;6.33;;;11.30;99.90;;;;;;5075695;28;20204;-60
2023/05/06 11:20:17;;;;;;;9.70;6.43;;;11.30;99.90;;;;;;5073169;28;20434;-56
2023/05/06 11:22:42;;;;;;;10.57;7.20;;;11.30;99.90;;;;;;5080551;28;20551;-60
2023/05/06 11:25:08;;;;;;;11.70;6.70;;;11.30;99.90;;;;;;5085390;28;20305;-60
2023/05/06 11:27:35;;;;;;;10.07;7.10;;;11.30;99.90;;;;;;5084911;28;20168;-61
2023/05/06 11:30:00;;;;;;;8.23;5.87;;;11.30;99.90;;;;;;5085064;28;20184;-59
2023/05/06 11:32:28;;;;;;;9.53;6.43;;;11.40;99.90;;;;;;5083111;28;20225;-64
2023/05/06 11:34:55;;;;;;;9.20;6.83;;;11.40;99.90;;;;;;5083775;28;20164;-64
2023/05/06 11:37:28;;;;;;;10.73;5.90;;;11.40;99.90;;;;;;5082884;28;20229;-65
2023/05/06 11:39:54;;;;;;;10.27;5.73;;;11.30;99.90;;;;;;5082787;28;20195;-65
2023/05/06 11:42:27;;;;;;;11.97;6.83;;;11.40;99.90;;;;;;5080861;28;20574;-65
2023/05/06 11:44:54;;;;;;;9.73;6.53;;;11.40;99.90;;;;;;5084175;28;20733;-65
2023/05/06 11:47:23;;;;;;;9.37;6.43;;;11.40;99.90;;;;;;5086526;28;20172;-65
2023/05/06 11:49:55;;;;;;;8.80;6.30;;;11.40;99.90;;;;;;5089351;28;20160;-64
2023/05/06 11:52:22;;;;;;;10.80;6.70;;;11.50;99.90;;;;;;5088083;28;20172;-65
2023/05/06 11:54:51;;;;;;;9.87;6.87;;;11.50;99.90;;;;;;5087102;28;20168;-65
2023/05/06 11:57:19;;;;;;;7.97;5.63;;;11.50;99.90;;;;;;5069600;28;20204;-65
2023/05/06 11:59:45;;;;;;;9.43;6.47;;;11.50;99.90;;;;;;5087077;28;20214;-65
2023/05/06 12:02:13;;;;;;;9.77;6.03;;;11.50;99.90;;;;;;5084824;28;20191;-65
2023/05/06 12:04:48;;;;;;;10.23;6.57;;;11.50;99.90;;;;;;5084388;28;20221;-65
2023/05/06 12:07:15;;;;;;;9.13;5.70;;;11.50;99.90;;;;;;5084384;28;20258;-65
2023/05/06 12:09:48;;;;;;;11.13;6.53;;;11.50;99.90;;;;;;5087644;28;20200;-65
2023/05/06 12:12:17;;;;;;;11.23;6.87;;;11.50;99.90;;;;;;5086658;28;20237;-65
2023/05/06 12:14:44;;;;;;;10.03;6.23;;;11.50;99.90;;;;;;5070662;28;20203;-64
2023/05/06 12:17:11;;;;;;;9.07;6.33;;;11.50;99.90;;;;;;5086634;28;20200;-65
2023/05/06 12:19:37;;;;;;;12.27;6.83;;;11.50;99.90;;;;;;5085464;28;20176;-60
2023/05/06 12:22:16;;;;;;;9.20;6.20;;;11.50;99.90;;;;;;5087650;28;20168;-61
2023/05/06 12:24:42;;;;;;;8.87;6.00;;;11.50;99.90;;;;;;5088310;28;20247;-60
2023/05/06 12:27:09;;;;;;;9.23;6.07;;;11.50;99.90;;;;;;5086384;28;20251;-61
2023/05/06 12:29:36;;;;;;;7.87;6.33;;;11.60;99.90;;;;;;5086355;28;20176;-60
2023/05/06 12:32:10;;;;;;;8.80;6.60;;;11.60;99.90;;;;;;5083033;28;20164;-60
2023/05/06 12:34:41;;;;;;;9.30;6.57;;;11.60;99.90;;;;;;5080971;28;20167;-59
2023/05/06 12:37:08;;;;;;;14.53;6.63;;;11.60;99.90;;;;;;5082354;28;20285;-60
2023/05/06 12:39:37;;;;;;;8.90;6.33;;;11.70;99.90;;;;;;5082264;28;20168;-60
2023/05/06 12:42:04;;;;;;;8.27;6.20;;;11.70;99.90;;;;;;5064556;28;20204;-60
2023/05/06 12:44:40;;;;;;;10.83;6.73;;;11.70;99.90;;;;;;5082843;28;20164;-61
2023/05/06 12:47:27;;;;;;;8.57;6.20;;;11.70;99.90;;;;;;5084957;28;20195;-61
2023/05/06 12:49:57;;;;;;;9.73;6.43;;;11.80;99.90;;;;;;5085108;28;20363;-59